Kamera  Kamera


Thunder radar more information blitzortung!


Rain radar more information rain snow radar



Nearby METAR Reports

   
EHVK - Volkel Rnlafb, Netherlands
Distance from station: SW 18 km
Updated: 27-02-2020 01:55
Overcast  
Overcast  
   Wind: SW 13 km/h
Wind: SW 13 km/h
Temperature: 2°C
Wind Chill: -2°C
Dew Point: 1°C
Humidity: 93%
Barometer: 1005 hPa
Clouds: Overcast
Visibility: More than 10 km
Cloud details: Few Clouds 2400 ft,
Partly Cloudy 2800 ft,
Overcast 22000 ft
EHVK 270055Z AUTO 22007KT 9999 FEW024 SCT028 OVC220 02/01 Q1005 BLU
EDLV - Niederrhein, Germany
Distance from station: SE 25 km
Updated: 26-02-2020 23:50
NOT Current
Clear  
Clear  
   Wind: SW 13 km/h
Wind: SW 13 km/h
Temperature: 3°C
Wind Chill: -1°C
Dew Point: 1°C
Humidity: 87%
Barometer: 1005 hPa
Visibility: More than 10 km
Cloud details: Clear
EDLV 262250Z 23007KT CAVOK 03/01 Q1005
EHDL - Deelen Rnlafb, Netherlands
Distance from station: N 35 km
Updated: 27-02-2020 01:55
Light Rain, Drizzle, Mostly Cloudy  
Light Rain, Drizzle, Mostly Cloudy  
   Wind: SSW 13 km/h
Wind: SSW 13 km/h
Temperature: 1°C
Wind Chill: -3°C
Dew Point: 1°C
Humidity: 100%
Barometer: 1005 hPa
Clouds: Mostly Cloudy
Visibility: 6 km
Cloud details: Few Clouds 1000 ft,
Partly Cloudy 2000 ft,
Mostly Cloudy 2900 ft
EHDL 270055Z AUTO 20007KT 160V230 6000 -RADZ FEW010 SCT020 BKN029 01/01 Q1005 WHT
EHEH - Eindhoven Rnlafb, Netherlands
Distance from station: SW 48 km
Updated: 27-02-2020 01:55
Overcast  
Overcast  
   Wind: SW 16.7 km/h
Wind: SW 16.7 km/h
Temperature: 2°C
Wind Chill: -2°C
Dew Point: 1°C
Humidity: 93%
Barometer: 1006 hPa
Clouds: Overcast
Visibility: More than 10 km
Cloud details: Overcast 20000 ft
EHEH 270055Z AUTO 22009KT 9999 OVC200 02/01 Q1006 BLU
EHGR - Gilze-Rijen Rnla, Netherlands
Distance from station: WSW 70 km
Updated: 27-02-2020 01:55
Overcast  
Overcast  
   Wind: SSW 11.1 km/h
Wind: SSW 11.1 km/h
Temperature: 2°C
Wind Chill: -1°C
Dew Point: 1°C
Humidity: 93%
Barometer: 1006 hPa
Clouds: Overcast
Visibility: More than 10 km
Cloud details: Partly Cloudy 3200 ft,
Overcast 20000 ft
EHGR 270055Z AUTO 21006KT 9999 SCT032 OVC200 02/01 Q1006 BLU
EBBL - Kleine-Brogel(Ba, Belgium
Distance from station: SSW 71 km
Updated: 27-02-2020 01:25
Light Rain, Mostly Cloudy  
Light Rain, Mostly Cloudy  
   Wind: SW 18.5 km/h
Wind: SW 18.5 km/h
Temperature: 3°C
Wind Chill: -1°C
Dew Point: 1°C
Humidity: 87%
Barometer: 1006 hPa
Clouds: Mostly Cloudy
Visibility: More than 10 km
Cloud details: Mostly Cloudy 3400 ft,
Mostly Cloudy 22000 ft
EBBL 270025Z AUTO 23010KT 9999 -RA BKN034/// BKN220/// 03/01 Q1006 BLU

Script developed by  Saratoga-weather.org Adapted for the template by  Weerstation Leuven